Time;durP1;ratioP1;P1;durP2;ratioP2;P2;SDS_P1;SDS_P2;PMS_P1;PMS_P2;Temp;Humidity;BMP_temperature;BMP_pressure;BME280_temperature;BME280_humidity;BME280_pressure;Samples;Min_cycle;Max_cycle;Signal;HPM_P1;HPM_P2
2021/10/26 00:00:12;;;;;;;1155.05;999.90;;;;;;;6.51;69.13;101379.59;687455;28;22473;-68
2021/10/26 00:00:33;;;;;;;1162.00;999.90;;;;;;;6.51;69.19;101379.59;687285;28;88509;-68
2021/10/26 00:00:54;;;;;;;1155.70;999.90;;;;;;;6.51;69.23;101375.06;685179;28;22388;-68
2021/10/26 00:01:16;;;;;;;1157.03;999.90;;;;;;;6.52;69.21;101374.09;686770;28;22378;-68
2021/10/26 00:01:39;;;;;;;1159.20;999.90;;;;;;;6.51;69.46;101377.75;686422;28;24043;-68
2021/10/26 00:02:00;;;;;;;1159.75;999.90;;;;;;;6.52;69.28;101376.78;684758;28;69413;-68
2021/10/26 00:02:21;;;;;;;1157.47;999.90;;;;;;;6.51;69.19;101375.06;684699;28;46599;-68
2021/10/26 00:02:43;;;;;;;1153.82;999.90;;;;;;;6.52;69.45;101379.47;687122;28;21470;-67
2021/10/26 00:03:05;;;;;;;1155.85;999.90;;;;;;;6.52;69.27;101373.22;684912;28;46354;-67
2021/10/26 00:03:26;;;;;;;1155.15;999.90;;;;;;;6.54;69.42;101377.47;685508;28;46469;-68
2021/10/26 00:03:47;;;;;;;1155.82;999.90;;;;;;;6.54;69.39;101376.66;685678;28;23276;-68
2021/10/26 00:04:09;;;;;;;1155.13;999.90;;;;;;;6.53;69.41;101370.41;685825;28;23706;-68
2021/10/26 00:04:31;;;;;;;1156.53;999.90;;;;;;;6.56;69.47;101374.66;686187;28;44355;-68
2021/10/26 00:04:52;;;;;;;1154.88;999.90;;;;;;;6.58;69.40;101376.25;684997;28;46398;-68
2021/10/26 00:05:13;;;;;;;1150.82;999.90;;;;;;;6.57;69.39;101371.00;685033;28;22374;-68
2021/10/26 00:05:36;;;;;;;1153.05;999.90;;;;;;;6.58;69.49;101372.69;686476;28;22558;-68
2021/10/26 00:06:00;;;;;;;1152.22;999.90;;;;;;;6.60;69.41;101376.94;683622;28;69466;-68
2021/10/26 00:06:21;;;;;;;1155.13;999.90;;;;;;;6.60;69.51;101371.56;684127;28;92244;-68
2021/10/26 00:06:42;;;;;;;1152.32;999.90;;;;;;;6.60;69.44;101374.25;685461;28;22381;-68
2021/10/26 00:07:04;;;;;;;1155.50;999.90;;;;;;;6.61;69.60;101377.78;687371;28;21543;-68
2021/10/26 00:07:27;;;;;;;1151.45;999.90;;;;;;;6.61;69.66;101381.31;686976;28;22397;-68
2021/10/26 00:07:48;;;;;;;1153.88;999.90;;;;;;;6.61;69.43;101372.41;682557;28;92143;-68
2021/10/26 00:08:09;;;;;;;1154.60;999.90;;;;;;;6.63;69.69;101373.13;685561;28;23469;-67
2021/10/26 00:08:31;;;;;;;1152.78;999.90;;;;;;;6.62;69.70;101379.50;686399;28;22406;-68
2021/10/26 00:08:55;;;;;;;1150.70;999.90;;;;;;;6.62;69.60;101376.81;686528;28;21467;-68
2021/10/26 00:09:16;;;;;;;1149.78;999.90;;;;;;;6.61;69.36;101370.56;683187;28;92325;-68
2021/10/26 00:09:37;;;;;;;1153.25;999.90;;;;;;;6.62;69.31;101374.13;686647;28;22395;-68
2021/10/26 00:09:58;;;;;;;1151.78;999.90;;;;;;;6.61;69.45;101372.41;684530;28;44328;-68
2021/10/26 00:10:20;;;;;;;1152.22;999.90;;;;;;;6.61;69.49;101377.78;685791;28;22344;-68
2021/10/26 00:10:41;;;;;;;1156.32;999.90;;;;;;;6.62;69.54;101369.59;686098;28;44328;-68
2021/10/26 00:11:03;;;;;;;1159.50;999.90;;;;;;;6.62;69.80;101372.28;686943;28;21505;-68
2021/10/26 00:11:25;;;;;;;1159.22;999.90;;;;;;;6.60;69.61;101370.69;685234;28;47342;-68
2021/10/26 00:11:47;;;;;;;1156.85;999.90;;;;;;;6.61;69.64;101375.09;684997;28;46424;-68
2021/10/26 00:12:11;;;;;;;1159.60;999.90;;;;;;;6.59;69.65;101371.72;683944;28;21504;-68
2021/10/26 00:12:33;;;;;;;1156.35;999.90;;;;;;;6.57;69.75;101371.00;680469;28;113827;-68
2021/10/26 00:12:55;;;;;;;1153.70;999.90;;;;;;;6.46;69.81;101347.78;684764;28;23331;-68
2021/10/26 00:13:16;;;;;;;1155.80;999.90;;;;;;;6.61;69.60;101370.56;686087;28;34802;-68
2021/10/26 00:13:37;;;;;;;1156.35;999.90;;;;;;;6.63;69.82;101375.81;685750;28;45396;-68
2021/10/26 00:13:59;;;;;;;1158.50;999.90;;;;;;;6.62;69.61;101374.97;686845;28;23833;-68
2021/10/26 00:14:21;;;;;;;1156.03;999.90;;;;;;;6.64;69.69;101374.81;688988;28;22420;-68
2021/10/26 00:14:42;;;;;;;1154.53;999.90;;;;;;;6.65;69.83;101376.53;684047;28;67479;-68
2021/10/26 00:15:04;;;;;;;1156.63;999.90;;;;;;;6.66;69.67;101378.22;684948;28;22404;-68
2021/10/26 00:15:26;;;;;;;1156.82;999.90;;;;;;;6.66;69.95;101375.53;685264;28;46392;-68
2021/10/26 00:15:49;;;;;;;1156.47;999.90;;;;;;;6.66;69.82;101376.41;685751;28;23328;-67
2021/10/26 00:16:10;;;;;;;1157.88;999.90;;;;;;;6.65;69.57;101377.38;684583;28;69288;-68
2021/10/26 00:16:32;;;;;;;1156.70;999.90;;;;;;;6.68;69.85;101384.31;684567;28;69288;-68
2021/10/26 00:16:55;;;;;;;1156.50;999.90;;;;;;;6.67;69.55;101386.13;685699;28;23410;-68
2021/10/26 00:17:16;;;;;;;1160.38;999.90;;;;;;;6.67;69.75;101383.44;685138;28;66800;-69
2021/10/26 00:17:37;;;;;;;1160.50;999.90;;;;;;;6.67;69.66;101379.94;687040;28;22380;-69
2021/10/26 00:17:58;;;;;;;1159.80;999.90;;;;;;;6.68;69.56;101379.78;685957;28;23464;-68
2021/10/26 00:18:20;;;;;;;1157.35;999.90;;;;;;;6.68;69.83;101373.59;685886;28;22309;-68
2021/10/26 00:18:41;;;;;;;1159.88;999.90;;;;;;;6.67;69.77;101378.09;685560;28;45210;-68
2021/10/26 00:19:03;;;;;;;1163.25;999.90;;;;;;;6.71;69.72;101386.75;685853;28;22384;-67
2021/10/26 00:19:24;;;;;;;1162.75;999.90;;;;;;;6.71;69.43;101383.19;687369;28;1498;-68
2021/10/26 00:19:46;;;;;;;1165.55;999.90;;;;;;;6.73;69.66;101384.75;685691;28;46314;-68
2021/10/26 00:20:08;;;;;;;1158.20;999.90;;;;;;;6.71;69.51;101383.19;685660;28;43793;-68
2021/10/26 00:20:31;;;;;;;1161.20;999.90;;;;;;;6.67;69.67;101370.03;685719;28;43913;-68
2021/10/26 00:20:52;;;;;;;1162.75;999.90;;;;;;;6.71;69.59;101381.38;684748;28;44219;-68
2021/10/26 00:21:14;;;;;;;1155.57;999.90;;;;;;;6.73;69.51;101384.75;686349;28;23584;-68
2021/10/26 00:21:36;;;;;;;1151.38;999.90;;;;;;;6.75;69.55;101385.47;685255;28;69435;-68
2021/10/26 00:21:57;;;;;;;1149.72;999.90;;;;;;;6.73;69.53;101379.38;685501;28;45367;-67
2021/10/26 00:22:19;;;;;;;1149.38;999.90;;;;;;;6.74;69.70;101375.72;686239;28;22251;-68
2021/10/26 00:22:42;;;;;;;1152.57;999.90;;;;;;;6.75;69.63;101382.78;686070;28;22404;-68
2021/10/26 00:23:03;;;;;;;1152.68;999.90;;;;;;;6.72;69.54;101377.69;683529;28;93854;-68
2021/10/26 00:23:24;;;;;;;1149.70;999.90;;;;;;;6.75;69.61;101380.09;685904;28;22369;-68
2021/10/26 00:23:45;;;;;;;1142.22;999.90;;;;;;;6.71;69.43;101380.50;686641;28;22413;-68
2021/10/26 00:24:07;;;;;;;1145.55;999.90;;;;;;;6.74;69.37;101386.47;685883;28;23539;-68
2021/10/26 00:24:29;;;;;;;1148.93;999.90;;;;;;;6.76;69.62;101384.47;685128;28;44378;-68
2021/10/26 00:24:50;;;;;;;1152.95;999.90;;;;;;;6.75;69.30;101372.03;685955;28;22430;-68
2021/10/26 00:25:11;;;;;;;1144.38;999.90;;;;;;;6.73;69.42;101378.53;684541;28;46314;-68
2021/10/26 00:25:34;;;;;;;1153.10;999.90;;;;;;;6.75;69.58;101374.72;686242;28;22416;-68
2021/10/26 00:25:55;;;;;;;1150.70;999.90;;;;;;;6.75;69.39;101384.63;680561;28;45670;-68
2021/10/26 00:26:16;;;;;;;1150.93;999.90;;;;;;;6.76;69.40;101376.44;687485;28;22458;-68
2021/10/26 00:26:37;;;;;;;1147.97;999.90;;;;;;;6.76;69.38;101379.13;687962;28;46347;-68
2021/10/26 00:27:00;;;;;;;1148.05;999.90;;;;;;;6.76;69.40;101384.47;688639;28;23652;-68
2021/10/26 00:27:21;;;;;;;1146.75;999.90;;;;;;;6.75;69.47;101385.47;687218;28;69429;-68
2021/10/26 00:27:43;;;;;;;1153.70;999.90;;;;;;;6.75;69.41;101379.25;687306;28;21507;-68
2021/10/26 00:28:04;;;;;;;1155.53;999.90;;;;;;;6.74;69.63;101381.09;685922;28;45239;-68
2021/10/26 00:28:26;;;;;;;1151.90;999.90;;;;;;;6.74;69.62;101378.41;686720;28;22398;-68
2021/10/26 00:28:48;;;;;;;1151.32;999.90;;;;;;;6.75;69.65;101372.03;685252;28;45350;-68
2021/10/26 00:29:10;;;;;;;1155.68;999.90;;;;;;;6.76;69.46;101375.59;683230;28;44198;-69
2021/10/26 00:29:31;;;;;;;1155.07;999.90;;;;;;;6.76;69.67;101375.59;682549;28;22412;-67
2021/10/26 00:29:53;;;;;;;1149.43;999.90;;;;;;;6.76;69.73;101370.22;682721;28;1985;-68
2021/10/26 00:30:14;;;;;;;1150.53;999.90;;;;;;;6.75;69.72;101377.41;677743;29;42652;-67
2021/10/26 00:30:35;;;;;;;1153.35;999.90;;;;;;;6.76;69.79;101373.75;678895;29;23351;-68
2021/10/26 00:30:57;;;;;;;1151.63;999.90;;;;;;;6.77;69.64;101371.91;680728;28;22381;-68
2021/10/26 00:31:19;;;;;;;1153.93;999.90;;;;;;;6.75;69.69;101361.28;681712;28;45201;-67
2021/10/26 00:31:41;;;;;;;1149.00;999.90;;;;;;;6.73;69.65;101360.59;684153;28;44381;-68
2021/10/26 00:32:04;;;;;;;1146.70;999.90;;;;;;;6.76;69.54;101364.84;686532;28;44386;-68
2021/10/26 00:32:25;;;;;;;1149.90;999.90;;;;;;;6.75;69.44;101372.03;687832;28;69264;-68
2021/10/26 00:32:47;;;;;;;1148.75;999.90;;;;;;;6.76;69.40;101356.81;687174;28;22398;-68
2021/10/26 00:33:09;;;;;;;1148.32;999.90;;;;;;;6.77;69.58;101362.03;685536;28;45232;-68
2021/10/26 00:33:30;;;;;;;1150.25;999.90;;;;;;;6.77;69.65;101353.97;686312;28;45240;-68
2021/10/26 00:33:54;;;;;;;1151.25;999.90;;;;;;;6.76;69.48;101354.94;686215;28;22119;-68
2021/10/26 00:34:16;;;;;;;1150.82;999.90;;;;;;;6.77;69.54;101358.47;682593;28;92504;-68
2021/10/26 00:34:37;;;;;;;1145.25;999.90;;;;;;;6.76;69.60;101352.28;683207;28;44377;-68
2021/10/26 00:34:58;;;;;;;1145.70;999.90;;;;;;;6.76;69.60;101356.81;682531;28;23486;-68
2021/10/26 00:35:20;;;;;;;1145.15;999.90;;;;;;;6.75;69.68;101355.94;680867;29;22390;-68
2021/10/26 00:35:41;;;;;;;1143.43;999.90;;;;;;;6.75;69.52;101355.94;680332;28;45485;-68
2021/10/26 00:36:03;;;;;;;1144.95;999.90;;;;;;;6.77;69.45;101356.66;681232;28;21553;-68
2021/10/26 00:36:25;;;;;;;1140.38;999.90;;;;;;;6.75;69.79;101355.94;680817;28;45231;-68
2021/10/26 00:36:47;;;;;;;1145.05;999.90;;;;;;;6.75;69.73;101366.66;682809;28;44394;-68
2021/10/26 00:37:08;;;;;;;1148.35;999.90;;;;;;;6.71;69.73;101354.53;680429;28;46392;-68
2021/10/26 00:37:30;;;;;;;1141.30;999.90;;;;;;;6.75;69.52;101372.03;683740;28;45028;-67
2021/10/26 00:37:53;;;;;;;1149.22;999.90;;;;;;;6.75;69.57;101361.28;680119;29;46339;-68
2021/10/26 00:38:15;;;;;;;1150.22;999.90;;;;;;;6.75;69.67;101360.47;680891;28;46290;-68
2021/10/26 00:38:38;;;;;;;1148.75;999.90;;;;;;;6.75;69.37;101376.56;683623;28;44374;-68
2021/10/26 00:38:59;;;;;;;1147.18;999.90;;;;;;;6.75;69.58;101374.72;683887;28;69442;-67
2021/10/26 00:39:21;;;;;;;1147.47;999.90;;;;;;;6.74;69.52;101359.63;683363;28;45109;-68
2021/10/26 00:39:43;;;;;;;1152.22;999.90;;;;;;;6.75;69.44;101365.81;684331;28;22398;-68
2021/10/26 00:40:06;;;;;;;1151.60;999.90;;;;;;;6.76;69.53;101370.22;683379;28;44404;-68
2021/10/26 00:40:29;;;;;;;1150.15;999.90;;;;;;;6.75;69.54;101355.94;682932;28;67499;-68
2021/10/26 00:40:50;;;;;;;1151.50;999.90;;;;;;;6.77;69.65;101347.75;682804;28;68995;-68
2021/10/26 00:41:12;;;;;;;1152.18;999.90;;;;;;;6.80;69.38;101352.84;684817;28;22378;-68
2021/10/26 00:41:34;;;;;;;1148.80;999.90;;;;;;;6.81;69.49;101351.84;683719;28;46409;-67
2021/10/26 00:41:57;;;;;;;1148.55;999.90;;;;;;;6.80;69.50;101359.06;681308;28;69440;-68
2021/10/26 00:42:18;;;;;;;1143.03;999.90;;;;;;;6.79;69.37;101349.31;683386;28;46367;-68
2021/10/26 00:42:43;;;;;;;1142.70;999.90;;;;;;;6.81;69.36;101350.00;681316;28;92291;-68
2021/10/26 00:43:04;;;;;;;1143.07;999.90;;;;;;;6.79;69.35;101352.00;680752;29;46392;-68
2021/10/26 00:43:26;;;;;;;1142.90;999.90;;;;;;;6.74;69.34;101346.19;679888;28;44483;-68
2021/10/26 00:43:48;;;;;;;1143.35;999.90;;;;;;;6.79;69.24;101352.00;681643;28;21501;-68
2021/10/26 00:44:10;;;;;;;1145.25;999.90;;;;;;;6.78;69.22;101344.91;681591;28;46344;-67
2021/10/26 00:44:32;;;;;;;1146.60;999.90;;;;;;;6.76;69.21;101348.75;678991;29;70139;-68
2021/10/26 00:44:55;;;;;;;1147.05;999.90;;;;;;;6.81;69.15;101351.84;681459;28;65470;-68
2021/10/26 00:45:17;;;;;;;1144.70;999.90;;;;;;;6.79;69.36;101349.31;683217;28;23456;-68
2021/10/26 00:45:39;;;;;;;1143.03;999.90;;;;;;;6.79;69.41;101346.63;685263;28;45237;-68
2021/10/26 00:46:03;;;;;;;1150.90;999.90;;;;;;;6.79;69.31;101346.63;683914;28;69440;-68
2021/10/26 00:46:27;;;;;;;1145.68;999.90;;;;;;;6.80;69.25;101344.78;681604;28;91967;-68
2021/10/26 00:46:49;;;;;;;1144.60;999.90;;;;;;;6.81;69.56;101349.16;680264;28;69391;-68
2021/10/26 00:47:12;;;;;;;1151.47;999.90;;;;;;;6.81;69.36;101347.31;681502;28;69311;-68
2021/10/26 00:47:33;;;;;;;1146.88;999.90;;;;;;;6.80;69.31;101347.47;682284;28;46307;-68
2021/10/26 00:47:54;;;;;;;1145.13;999.90;;;;;;;6.81;69.48;101344.63;684170;28;22485;-68
2021/10/26 00:48:15;;;;;;;1146.38;999.90;;;;;;;6.81;69.49;101350.00;687570;28;22918;-67
2021/10/26 00:48:38;;;;;;;1144.40;999.90;;;;;;;6.77;69.27;101337.88;687194;28;22411;-68
2021/10/26 00:49:00;;;;;;;1148.03;999.90;;;;;;;6.83;69.29;101344.50;682575;28;69384;-67
2021/10/26 00:49:21;;;;;;;1145.13;999.90;;;;;;;6.82;69.25;101351.72;679857;28;46408;-68
2021/10/26 00:49:45;;;;;;;1143.15;999.90;;;;;;;6.84;69.49;101346.22;679268;29;22415;-68
2021/10/26 00:50:08;;;;;;;1139.90;999.90;;;;;;;6.83;69.28;101342.69;677106;28;92323;-68
2021/10/26 00:50:30;;;;;;;1137.28;999.90;;;;;;;6.82;69.37;101348.19;679350;29;45001;-68
2021/10/26 00:50:52;;;;;;;1148.00;999.90;;;;;;;6.83;69.35;101348.06;680733;28;45969;-68
2021/10/26 00:51:14;;;;;;;1147.80;999.90;;;;;;;6.83;69.47;101349.88;680725;28;92271;-68
2021/10/26 00:51:36;;;;;;;1147.03;999.90;;;;;;;6.81;69.29;101347.31;682523;28;22444;-68
2021/10/26 00:51:58;;;;;;;1146.57;999.90;;;;;;;6.83;69.29;101337.31;680019;28;46341;-68
2021/10/26 00:52:19;;;;;;;1145.10;999.90;;;;;;;6.84;69.19;101355.09;680794;28;45254;-68
2021/10/26 00:52:45;;;;;;;1145.97;999.90;;;;;;;6.84;69.46;101349.72;678770;28;113112;-68
2021/10/26 00:53:08;;;;;;;1143.32;999.90;;;;;;;6.85;69.35;101354.13;680649;28;45037;-68
2021/10/26 00:53:30;;;;;;;1145.80;999.90;;;;;;;6.87;69.19;101351.31;682668;28;46318;-68
2021/10/26 00:53:52;;;;;;;1148.68;999.90;;;;;;;6.84;69.37;101347.06;683433;28;69263;-68
2021/10/26 00:54:13;;;;;;;1148.53;999.90;;;;;;;6.85;69.33;101356.81;682604;28;21479;-68
2021/10/26 00:54:41;;;;;;;1143.50;999.90;;;;;;;6.86;69.10;101354.97;677060;28;137946;-68
2021/10/26 00:55:08;;;;;;;1148.22;999.90;;;;;;;6.84;69.20;101347.06;677754;28;60576;-68
2021/10/26 00:55:32;;;;;;;1150.03;999.90;;;;;;;6.87;69.31;101355.84;675005;29;138731;-68
2021/10/26 00:55:54;;;;;;;1146.05;999.90;;;;;;;6.84;69.40;101348.91;678919;28;21450;-68
2021/10/26 00:56:16;;;;;;;1144.53;999.90;;;;;;;6.85;69.18;101354.13;681639;28;23721;-68
2021/10/26 00:56:40;;;;;;;1143.93;999.90;;;;;;;6.88;69.24;101352.16;675973;29;113553;-68
2021/10/26 00:57:02;;;;;;;1143.90;999.90;;;;;;;6.90;69.31;101355.56;681351;28;46399;-68
2021/10/26 00:57:25;;;;;;;1145.80;999.90;;;;;;;6.91;69.13;101354.56;685078;28;21702;-68
2021/10/26 00:57:51;;;;;;;1145.65;999.90;;;;;;;6.90;69.17;101351.03;688177;28;60568;-68
2021/10/26 00:58:14;;;;;;;1146.03;999.90;;;;;;;6.88;69.08;101344.09;685395;28;94329;-68
2021/10/26 00:58:36;;;;;;;1143.97;999.90;;;;;;;6.90;68.95;101351.03;685216;28;1213;-68
2021/10/26 00:58:58;;;;;;;1141.15;999.90;;;;;;;6.91;69.20;101355.44;684988;28;847;-68
2021/10/26 00:59:20;;;;;;;1144.80;999.90;;;;;;;6.90;69.17;101355.56;683648;28;46352;-68
2021/10/26 00:59:44;;;;;;;1138.70;999.90;;;;;;;6.87;69.10;101355.84;677010;28;115453;-68
2021/10/26 01:00:07;;;;;;;1144.25;999.90;;;;;;;6.87;68.98;101347.78;681257;28;23505;-68
2021/10/26 01:00:29;;;;;;;1148.53;999.90;;;;;;;6.85;68.84;101350.59;679445;28;69410;-68
2021/10/26 01:00:52;;;;;;;1146.18;999.90;;;;;;;6.83;68.84;101353.44;679292;28;46328;-68
2021/10/26 01:01:13;;;;;;;1142.68;999.90;;;;;;;6.81;69.07;101349.16;679492;28;67518;-68
2021/10/26 01:01:35;;;;;;;1135.88;999.90;;;;;;;6.77;69.07;101348.59;679765;29;22426;-68
2021/10/26 01:01:56;;;;;;;1146.18;999.90;;;;;;;6.79;68.93;101353.84;680995;28;47441;-68
2021/10/26 01:02:22;;;;;;;1148.20;999.90;;;;;;;6.77;69.08;101351.28;685779;28;92090;-68
2021/10/26 01:02:44;;;;;;;1149.60;999.90;;;;;;;6.75;69.05;101349.72;684829;28;68325;-68
2021/10/26 01:03:12;;;;;;;1147.80;999.90;;;;;;;6.74;68.97;101356.06;684569;28;59936;-68
2021/10/26 01:03:37;;;;;;;1147.05;999.90;;;;;;;6.74;69.21;101351.56;681586;28;114922;-69
2021/10/26 01:04:00;;;;;;;1149.13;999.90;;;;;;;6.72;69.21;101352.69;682580;28;46655;-68
2021/10/26 01:04:22;;;;;;;1145.90;999.90;;;;;;;6.73;69.13;101347.16;678794;28;69258;-68
2021/10/26 01:04:43;;;;;;;1150.38;999.90;;;;;;;6.72;68.99;101358.03;681164;29;22382;-68
2021/10/26 01:05:05;;;;;;;1148.47;999.90;;;;;;;6.70;69.08;101351.97;681324;28;24329;-68
2021/10/26 01:05:28;;;;;;;1149.30;999.90;;;;;;;6.68;69.14;101363.69;681089;28;46329;-68
2021/10/26 01:05:49;;;;;;;1147.10;999.90;;;;;;;6.67;69.08;101361.97;681884;28;46308;-70
2021/10/26 01:06:10;;;;;;;1147.95;999.90;;;;;;;6.66;69.25;101360.28;680803;28;46272;-68
2021/10/26 01:06:32;;;;;;;1148.50;999.90;;;;;;;6.66;69.25;101354.94;681652;29;21607;-68
2021/10/26 01:06:55;;;;;;;1146.05;999.90;;;;;;;6.67;69.20;101364.66;681624;28;21314;-69
2021/10/26 01:07:18;;;;;;;1147.75;999.90;;;;;;;6.67;69.53;101358.44;681411;28;106468;-67
2021/10/26 01:07:39;;;;;;;1148.63;999.90;;;;;;;6.66;69.49;101362.13;680794;28;21514;-69
2021/10/26 01:08:01;;;;;;;1146.93;999.90;;;;;;;6.65;69.28;101363.13;680826;28;46111;-68
2021/10/26 01:08:25;;;;;;;1144.57;999.90;;;;;;;6.65;69.33;101355.06;682519;28;69420;-68
2021/10/26 01:08:49;;;;;;;1143.90;999.90;;;;;;;6.64;69.33;101359.56;682415;28;69314;-69
2021/10/26 01:09:10;;;;;;;1141.90;999.90;;;;;;;6.64;69.46;101364.94;681954;28;92126;-68
2021/10/26 01:09:32;;;;;;;1141.35;999.90;;;;;;;6.65;69.28;101355.06;685448;28;44352;-68
2021/10/26 01:09:54;;;;;;;1140.22;999.90;;;;;;;6.64;69.36;101364.94;682408;28;69081;-68
2021/10/26 01:10:17;;;;;;;1140.43;999.90;;;;;;;6.64;69.23;101362.25;682137;28;42475;-68
2021/10/26 01:10:38;;;;;;;1140.10;999.90;;;;;;;6.63;69.49;101360.56;680253;28;46413;-68
2021/10/26 01:11:00;;;;;;;1141.57;999.90;;;;;;;6.64;69.58;101361.41;681513;28;46611;-69
2021/10/26 01:11:22;;;;;;;1141.28;999.90;;;;;;;6.65;69.53;101352.38;681619;28;45232;-69
2021/10/26 01:11:47;;;;;;;1142.88;999.90;;;;;;;6.63;69.68;101344.47;674989;29;115139;-69
2021/10/26 01:12:09;;;;;;;1141.55;999.90;;;;;;;6.65;69.59;101353.22;676007;29;46325;-68
2021/10/26 01:12:31;;;;;;;1141.80;999.90;;;;;;;6.66;69.89;101362.13;678626;29;44421;-68
2021/10/26 01:12:52;;;;;;;1142.97;999.90;;;;;;;6.66;69.81;101354.94;678425;29;22364;-68
2021/10/26 01:13:16;;;;;;;1139.63;999.90;;;;;;;6.66;69.76;101360.28;677807;29;66829;-68
2021/10/26 01:13:37;;;;;;;1141.95;999.90;;;;;;;6.68;69.68;101352.94;679631;28;46575;-68
2021/10/26 01:13:59;;;;;;;1141.18;999.90;;;;;;;6.67;69.75;101351.25;679053;29;46337;-68
2021/10/26 01:14:20;;;;;;;1137.38;999.90;;;;;;;6.68;69.76;101344.91;681755;28;22417;-68
2021/10/26 01:14:43;;;;;;;1135.40;999.90;;;;;;;6.72;69.84;101348.16;681157;28;44463;-68
2021/10/26 01:15:06;;;;;;;1138.07;999.90;;;;;;;6.74;69.95;101356.06;684542;28;67453;-69
2021/10/26 01:15:28;;;;;;;1140.38;999.90;;;;;;;6.74;69.92;101345.31;681192;28;69502;-69
2021/10/26 01:15:53;;;;;;;1143.55;999.90;;;;;;;6.75;69.85;101358.59;678489;29;67460;-68
2021/10/26 01:16:27;;;;;;;1136.25;999.90;;;;;;;6.74;69.94;101348.88;678695;28;137413;-69
2021/10/26 01:16:48;;;;;;;1137.55;999.90;;;;;;;6.75;69.79;101361.28;683845;28;69406;-68
2021/10/26 01:17:12;;;;;;;1139.50;999.90;;;;;;;6.75;69.77;101358.59;680632;28;45048;-68
2021/10/26 01:17:33;;;;;;;1130.95;999.90;;;;;;;6.76;69.66;101356.81;683696;28;67450;-70
2021/10/26 01:17:55;;;;;;;1138.03;999.90;;;;;;;6.76;69.67;101356.81;684644;28;23496;-68
2021/10/26 01:18:17;;;;;;;1135.05;999.90;;;;;;;6.75;69.74;101350.56;683514;28;44387;-69
2021/10/26 01:18:38;;;;;;;1138.10;999.90;;;;;;;6.76;69.64;101349.59;684396;28;23515;-68
2021/10/26 01:18:59;;;;;;;1140.70;999.90;;;;;;;6.77;69.63;101355.78;683421;28;23498;-67
2021/10/26 01:19:21;;;;;;;1136.88;999.90;;;;;;;6.79;69.75;101356.53;680373;28;46305;-68
2021/10/26 01:19:45;;;;;;;1138.45;999.90;;;;;;;6.79;69.57;101348.47;678181;29;44147;-69
2021/10/26 01:20:08;;;;;;;1135.35;999.90;;;;;;;6.81;69.63;101355.38;676208;28;90713;-69
2021/10/26 01:20:29;;;;;;;1127.07;999.90;;;;;;;6.81;69.50;101363.44;674936;29;67296;-68
2021/10/26 01:20:52;;;;;;;1136.70;999.90;;;;;;;6.82;69.70;101358.94;678543;29;22364;-68
2021/10/26 01:21:14;;;;;;;1139.22;999.90;;;;;;;6.83;69.58;101357.94;678985;29;44372;-68
2021/10/26 01:21:35;;;;;;;1136.40;999.90;;;;;;;6.82;69.64;101357.09;681675;28;44396;-69
2021/10/26 01:21:56;;;;;;;1140.30;999.90;;;;;;;6.82;69.51;101362.47;681337;28;46210;-69
2021/10/26 01:22:19;;;;;;;1141.10;999.90;;;;;;;6.82;69.49;101358.94;683404;28;22408;-69
2021/10/26 01:22:41;;;;;;;1140.32;999.90;;;;;;;6.81;69.76;101360.75;681030;28;68560;-68
2021/10/26 01:23:05;;;;;;;1142.88;999.90;;;;;;;6.81;69.39;101355.38;677676;29;90218;-69
2021/10/26 01:23:29;;;;;;;1144.90;999.90;;;;;;;6.80;69.50;101360.88;676550;29;90400;-68
2021/10/26 01:23:50;;;;;;;1124.67;999.90;;;;;;;6.81;69.63;101360.75;678424;29;45176;-69
2021/10/26 01:24:14;;;;;;;1125.20;999.90;;;;;;;6.80;69.58;101358.19;679467;29;46233;-69
2021/10/26 01:24:35;;;;;;;1139.80;999.90;;;;;;;6.81;69.61;101358.06;679908;28;70316;-67
2021/10/26 01:24:57;;;;;;;1144.88;999.90;;;;;;;6.82;69.71;101357.09;680373;28;22548;-69
2021/10/26 01:25:21;;;;;;;1145.82;999.90;;;;;;;6.84;69.37;101359.63;683388;28;90843;-69
2021/10/26 01:25:42;;;;;;;1145.68;999.90;;;;;;;6.83;69.53;101358.81;684463;28;45256;-69
2021/10/26 01:26:04;;;;;;;1147.00;999.90;;;;;;;6.83;69.57;101357.94;684072;28;46312;-69
2021/10/26 01:26:25;;;;;;;1146.07;999.90;;;;;;;6.83;69.47;101357.94;686540;28;23418;-68
2021/10/26 01:26:47;;;;;;;1143.82;999.90;;;;;;;6.84;69.66;101356.94;688437;28;44380;-68
2021/10/26 01:27:09;;;;;;;1145.28;999.90;;;;;;;6.82;69.51;101359.78;686929;28;44430;-68
2021/10/26 01:27:30;;;;;;;1145.03;999.90;;;;;;;6.83;69.63;101357.94;685363;28;21488;-69
2021/10/26 01:27:53;;;;;;;1148.97;999.90;;;;;;;6.83;69.69;101353.44;684060;28;23322;-68
2021/10/26 01:28:16;;;;;;;1147.78;999.90;;;;;;;6.85;69.61;101358.66;679747;28;115265;-69
2021/10/26 01:28:38;;;;;;;1148.68;999.90;;;;;;;6.83;69.63;101358.81;681351;28;46322;-68
2021/10/26 01:28:59;;;;;;;1150.75;999.90;;;;;;;6.84;69.64;101354.25;681173;28;21552;-68
2021/10/26 01:29:23;;;;;;;1136.68;999.90;;;;;;;6.83;69.50;101357.94;678397;28;90851;-69
2021/10/26 01:29:46;;;;;;;1146.10;999.90;;;;;;;6.84;69.53;101359.63;681952;28;22241;-69
2021/10/26 01:30:10;;;;;;;1145.68;999.90;;;;;;;6.83;69.82;101360.63;678268;28;115355;-68
2021/10/26 01:30:34;;;;;;;1149.07;999.90;;;;;;;6.80;69.83;101355.50;682636;28;69254;-69
2021/10/26 01:31:16;;;;;;;1149.55;999.90;;;;;;;6.81;69.89;101359.91;682902;28;157353;-68
2021/10/26 01:31:47;;;;;;;1140.82;999.90;;;;;;;6.83;69.96;101363.28;685394;28;137271;-69
2021/10/26 01:32:17;;;;;;;1136.85;999.90;;;;;;;6.82;69.72;101362.47;684062;28;137730;-69
2021/10/26 01:32:44;;;;;;;1152.18;999.90;;;;;;;6.82;69.85;101354.41;681981;28;61073;-68
2021/10/26 01:33:25;;;;;;;1142.88;999.90;;;;;;;6.85;69.68;101358.66;679195;28;136007;-69
2021/10/26 01:34:05;;;;;;;1142.85;999.90;;;;;;;6.88;69.76;101357.50;677433;28;137783;-68
2021/10/26 01:34:29;;;;;;;1141.32;999.90;;;;;;;6.90;70.00;101356.41;682692;28;114794;-68
2021/10/26 01:34:52;;;;;;;1141.50;999.90;;;;;;;6.92;69.95;101361.63;685292;28;22147;-68
2021/10/26 01:35:13;;;;;;;1143.97;999.90;;;;;;;6.91;69.89;101352.75;683495;28;69449;-68
2021/10/26 01:35:35;;;;;;;1135.88;999.90;;;;;;;6.92;69.89;101348.22;685459;28;22403;-69
2021/10/26 01:35:57;;;;;;;1132.80;999.90;;;;;;;6.94;69.78;101354.28;683481;28;67475;-69
2021/10/26 01:36:22;;;;;;;1132.20;999.90;;;;;;;6.91;69.81;101352.75;683665;28;69660;-69
2021/10/26 01:36:43;;;;;;;1136.50;999.90;;;;;;;6.94;69.80;101356.97;684393;28;69503;-68
2021/10/26 01:37:07;;;;;;;1143.28;999.90;;;;;;;6.93;69.58;101353.44;685406;28;46321;-68
2021/10/26 01:37:31;;;;;;;1144.82;999.90;;;;;;;6.94;69.77;101362.34;683203;28;137989;-69
2021/10/26 01:37:52;;;;;;;1145.28;999.90;;;;;;;6.92;69.77;101362.47;683516;28;45239;-69
2021/10/26 01:38:14;;;;;;;1142.13;999.90;;;;;;;6.91;69.84;101358.13;683480;28;22380;-68
2021/10/26 01:38:36;;;;;;;1145.03;999.90;;;;;;;6.94;69.71;101360.50;680793;28;67435;-68
2021/10/26 01:38:57;;;;;;;1146.22;999.90;;;;;;;6.94;69.83;101362.34;679655;29;22404;-68
2021/10/26 01:39:19;;;;;;;1147.68;999.90;;;;;;;6.94;69.76;101357.81;680490;28;45502;-70
2021/10/26 01:39:41;;;;;;;1149.47;999.90;;;;;;;6.93;69.65;101360.63;682950;28;22121;-69
2021/10/26 01:40:04;;;;;;;1150.10;999.90;;;;;;;6.92;69.82;101359.78;678954;28;69434;-68
2021/10/26 01:40:27;;;;;;;1152.88;999.90;;;;;;;6.95;69.62;101356.84;681695;28;92104;-69
2021/10/26 01:40:48;;;;;;;1150.90;999.90;;;;;;;6.96;69.57;101357.66;684319;28;23236;-68
2021/10/26 01:41:10;;;;;;;1151.85;999.90;;;;;;;6.97;69.74;101357.53;687090;28;22413;-67